Time;durP1;ratioP1;P1;durP2;ratioP2;P2;SDS_P1;SDS_P2;PMS_P1;PMS_P2;Temp;Humidity;BMP_temperature;BMP_pressure;BME280_temperature;BME280_humidity;BME280_pressure;Samples;Min_cycle;Max_cycle;Signal;HPM_P1;HPM_P2
2022/04/14 00:01:07;;;;;;;;;11.00;9.75;;;;;15.11;61.77;100247.78;5046695;28;8893;-62
2022/04/14 00:03:35;;;;;;;;;5.75;5.00;;;;;15.09;61.42;100247.06;5054924;28;8872;-62
2022/04/14 00:06:03;;;;;;;;;9.00;7.75;;;;;15.07;61.60;100249.03;5054590;28;8941;-62
2022/04/14 00:08:31;;;;;;;;;9.75;8.25;;;;;15.04;61.63;100254.69;5054765;28;8858;-62
2022/04/14 00:10:58;;;;;;;;;10.50;9.25;;;;;14.99;61.73;100255.13;5050785;28;8834;-62
2022/04/14 00:13:26;;;;;;;;;9.00;7.67;;;;;14.96;61.78;100249.19;5034348;28;8841;-62
2022/04/14 00:15:54;;;;;;;;;8.00;8.00;;;;;14.94;61.73;100259.22;5034233;28;8828;-62
2022/04/14 00:18:22;;;;;;;;;11.00;8.50;;;;;14.91;61.81;100267.53;5035324;28;8866;-62
2022/04/14 00:20:49;;;;;;;;;9.50;9.00;;;;;14.87;62.03;100260.78;5039367;28;8833;-63
2022/04/14 00:23:17;;;;;;;;;8.50;7.00;;;;;14.84;62.13;100261.03;5057817;28;8819;-62
2022/04/14 00:25:45;;;;;;;;;9.25;9.25;;;;;14.82;62.25;100258.53;5048892;28;8902;-62
2022/04/14 00:28:12;;;;;;;;;7.50;6.50;;;;;14.81;62.56;100262.16;5038163;28;8840;-62
2022/04/14 00:30:40;;;;;;;;;10.50;10.00;;;;;14.81;61.77;100266.69;5038873;28;8850;-62
2022/04/14 00:33:08;;;;;;;;;11.50;9.00;;;;;14.79;62.33;100263.31;5054298;28;8822;-62
2022/04/14 00:35:36;;;;;;;;;7.00;7.00;;;;;14.77;61.79;100262.59;5044796;28;8828;-62
2022/04/14 00:38:04;;;;;;;;;9.25;7.00;;;;;14.75;62.37;100265.44;5038035;28;8817;-62
2022/04/14 00:40:31;;;;;;;;;6.00;6.00;;;;;14.74;62.34;100254.84;5037687;28;9494;-62
2022/04/14 00:42:59;;;;;;;;;8.50;8.50;;;;;14.73;62.26;100247.78;5053567;28;8818;-63
2022/04/14 00:45:27;;;;;;;;;9.25;9.00;;;;;14.74;62.50;100242.31;5045531;28;8910;-63
2022/04/14 00:47:55;;;;;;;;;9.75;9.50;;;;;14.75;62.43;100245.81;5037165;28;8844;-63
2022/04/14 00:50:22;;;;;;;;;13.00;13.00;;;;;14.75;62.20;100245.81;5036937;28;8836;-62
2022/04/14 00:52:50;;;;;;;;;12.50;11.50;;;;;14.74;62.37;100242.31;5036997;28;9487;-62
2022/04/14 00:55:18;;;;;;;;;7.25;6.00;;;;;14.71;62.78;100239.88;5036418;28;8839;-63
2022/04/14 00:57:46;;;;;;;;;10.75;9.50;;;;;14.69;62.80;100241.88;5044894;28;8865;-63
2022/04/14 01:00:14;;;;;;;;;12.50;10.50;;;;;14.67;62.79;100243.00;5049647;28;8926;-63
2022/04/14 01:02:43;;;;;;;;;9.00;7.50;;;;;14.65;63.12;100247.66;5038636;28;9466;-65
2022/04/14 01:05:12;;;;;;;;;12.00;10.00;;;;;14.63;62.85;100241.59;5037640;28;8852;-62
2022/04/14 01:07:39;;;;;;;;;12.00;9.50;;;;;14.61;62.48;100240.84;5037498;28;8836;-66
2022/04/14 01:10:07;;;;;;;;;6.75;6.75;;;;;14.60;63.19;100241.84;5038725;28;8832;-62
2022/04/14 01:12:35;;;;;;;;;12.00;9.75;;;;;14.58;62.68;100244.66;5037928;28;8846;-62
2022/04/14 01:15:03;;;;;;;;;12.75;9.50;;;;;14.55;62.71;100233.38;5047497;28;8827;-63
2022/04/14 01:17:30;;;;;;;;;12.50;11.75;;;;;14.52;63.05;100233.66;5037013;28;8860;-62
2022/04/14 01:19:58;;;;;;;;;7.00;6.50;;;;;14.50;63.33;100227.59;5038912;28;8828;-63
2022/04/14 01:22:26;;;;;;;;;12.25;12.00;;;;;14.44;63.32;100228.16;5037670;28;8848;-63
2022/04/14 01:24:53;;;;;;;;;12.50;11.00;;;;;14.40;63.38;100224.03;5044445;28;8827;-62
2022/04/14 01:27:21;;;;;;;;;11.50;9.25;;;;;14.34;63.10;100222.78;5057225;28;8858;-62
2022/04/14 01:29:51;;;;;;;;;10.00;9.50;;;;;14.28;63.42;100226.00;5051282;28;8860;-62
2022/04/14 01:32:19;;;;;;;;;9.00;7.00;;;;;14.24;63.68;100226.41;5037101;28;8824;-62
2022/04/14 01:34:47;;;;;;;;;12.25;8.75;;;;;14.20;63.64;100217.00;5037650;28;8852;-62
2022/04/14 01:37:15;;;;;;;;;10.00;8.50;;;;;14.18;63.60;100225.16;5037062;28;8817;-63
2022/04/14 01:39:43;;;;;;;;;4.00;4.00;;;;;14.17;63.71;100215.41;5056292;28;8855;-62
2022/04/14 01:42:10;;;;;;;;;10.50;8.50;;;;;14.17;63.84;100215.41;5057412;28;8856;-63
2022/04/14 01:44:38;;;;;;;;;11.00;9.50;;;;;14.20;63.33;100212.47;5050102;28;9682;-62
2022/04/14 01:47:06;;;;;;;;;13.25;12.00;;;;;14.23;63.63;100214.03;5037298;28;8862;-63
2022/04/14 01:49:33;;;;;;;;;7.50;7.50;;;;;14.23;63.55;100214.88;5037235;28;8858;-62
2022/04/14 01:52:01;;;;;;;;;11.75;9.50;;;;;14.25;63.63;100214.72;5036600;28;8861;-63
2022/04/14 01:54:29;;;;;;;;;9.50;8.00;;;;;14.21;63.32;100218.69;5036493;28;8832;-63
2022/04/14 01:56:57;;;;;;;;;11.00;10.00;;;;;14.17;63.81;100218.06;5036621;28;8840;-62
2022/04/14 01:59:24;;;;;;;;;12.00;11.50;;;;;14.14;64.19;100215.69;5037760;28;8836;-62
2022/04/14 02:01:52;;;;;;;;;15.00;12.50;;;;;14.10;63.96;100224.97;5048731;28;9500;-62
2022/04/14 02:04:20;;;;;;;;;19.00;13.25;;;;;14.06;63.97;100222.69;5051981;28;8955;-62
2022/04/14 02:06:48;;;;;;;;;12.50;10.25;;;;;14.03;64.30;100218.47;5036498;28;8841;-62
2022/04/14 02:09:16;;;;;;;;;12.75;11.50;;;;;14.01;63.89;100225.78;5036851;28;8813;-62
2022/04/14 02:11:43;;;;;;;;;10.50;10.00;;;;;14.00;63.82;100220.56;5036226;28;8860;-62
2022/04/14 02:14:11;;;;;;;;;12.50;12.00;;;;;13.98;64.54;100225.22;5039102;28;8972;-62
2022/04/14 02:16:39;;;;;;;;;12.25;11.00;;;;;13.97;64.06;100231.56;5056812;28;8850;-62
2022/04/14 02:19:07;;;;;;;;;12.50;10.50;;;;;13.94;64.50;100230.00;5055788;28;8819;-63
2022/04/14 02:21:35;;;;;;;;;12.50;11.50;;;;;13.93;64.43;100238.16;5055945;28;8844;-62
2022/04/14 02:24:02;;;;;;;;;9.00;8.75;;;;;13.91;64.07;100238.31;5056294;28;8818;-63
2022/04/14 02:26:30;;;;;;;;;11.00;9.75;;;;;13.89;64.40;100237.56;5055791;28;8830;-62
2022/04/14 02:28:59;;;;;;;;;10.25;9.25;;;;;13.88;64.15;100233.22;5054511;28;8872;-62
2022/04/14 02:31:27;;;;;;;;;10.00;9.75;;;;;13.86;63.91;100229.81;5054373;28;8830;-62
2022/04/14 02:33:54;;;;;;;;;10.50;10.00;;;;;13.86;64.47;100231.66;5055603;28;8865;-62
2022/04/14 02:36:23;;;;;;;;;9.25;9.00;;;;;13.84;64.52;100233.63;5042676;28;8831;-62
2022/04/14 02:38:51;;;;;;;;;9.50;8.50;;;;;13.81;64.50;100231.22;5052429;28;8823;-67
2022/04/14 02:41:19;;;;;;;;;11.00;11.00;;;;;13.79;64.54;100241.19;5055723;28;8848;-63
2022/04/14 02:43:47;;;;;;;;;14.00;14.00;;;;;13.76;64.35;100246.84;5055648;28;8827;-63
2022/04/14 02:46:15;;;;;;;;;16.00;15.00;;;;;13.73;64.77;100239.09;5022954;28;8826;-63
2022/04/14 02:48:43;;;;;;;;;12.25;11.00;;;;;13.71;64.47;100238.34;5055657;28;8831;-63
2022/04/14 02:51:11;;;;;;;;;12.25;12.00;;;;;13.70;64.99;100232.16;5056111;28;8960;-62
2022/04/14 02:53:38;;;;;;;;;12.25;11.00;;;;;13.70;64.56;100234.84;5054125;28;8830;-63
2022/04/14 02:56:06;;;;;;;;;13.00;9.25;;;;;13.69;64.50;100237.66;5035532;28;8832;-63
2022/04/14 02:58:36;;;;;;;;;8.75;8.00;;;;;13.66;64.46;100237.94;5035858;28;8880;-62
2022/04/14 03:01:03;;;;;;;;;13.00;12.00;;;;;13.63;65.10;100230.16;5047690;28;8826;-62
2022/04/14 03:03:31;;;;;;;;;13.50;12.50;;;;;13.61;65.03;100237.47;5054908;28;8952;-63
2022/04/14 03:05:59;;;;;;;;;12.75;12.25;;;;;13.60;65.09;100230.44;5054665;28;8833;-62
2022/04/14 03:08:27;;;;;;;;;16.50;13.50;;;;;13.57;64.67;100228.00;5054868;28;8830;-63
2022/04/14 03:10:55;;;;;;;;;12.25;12.00;;;;;13.56;64.84;100229.84;5026645;28;8886;-63
2022/04/14 03:13:22;;;;;;;;;15.75;14.00;;;;;13.56;64.82;100231.66;5035851;28;8837;-62
2022/04/14 03:15:51;;;;;;;;;10.50;9.50;;;;;13.54;64.89;100221.13;5035769;28;8825;-63
2022/04/14 03:18:18;;;;;;;;;14.50;12.00;;;;;13.54;64.54;100225.59;5038933;28;8845;-62
2022/04/14 03:20:46;;;;;;;;;12.50;11.25;;;;;13.54;65.02;100222.94;5055419;28;9545;-62
2022/04/14 03:23:14;;;;;;;;;10.75;9.50;;;;;13.54;65.41;100220.25;5055249;28;8853;-62
2022/04/14 03:25:43;;;;;;;;;13.50;13.00;;;;;13.52;64.89;100217.69;5039270;28;8835;-62
2022/04/14 03:28:11;;;;;;;;;14.00;14.00;;;;;13.50;64.95;100211.66;5035595;28;8864;-62
2022/04/14 03:30:38;;;;;;;;;16.25;15.50;;;;;13.47;65.62;100214.59;5038514;28;8865;-62
2022/04/14 03:33:06;;;;;;;;;14.00;12.75;;;;;13.44;65.47;100209.50;5054594;28;8870;-62
2022/04/14 03:35:34;;;;;;;;;14.25;13.75;;;;;13.42;65.35;100210.59;5038963;28;8824;-62
2022/04/14 03:38:01;;;;;;;;;17.00;12.75;;;;;13.42;65.33;100208.78;5035352;28;8827;-63
2022/04/14 03:40:49;;;;;;;;;12.75;12.75;;;;;13.43;65.07;100201.63;5035257;28;8856;-62
2022/04/14 03:43:17;;;;;;;;;9.25;7.50;;;;;13.44;65.68;100216.69;5052941;28;8834;-63
2022/04/14 03:45:45;;;;;;;;;10.25;6.25;;;;;13.42;65.64;100223.97;5054207;28;8830;-63
2022/04/14 03:48:12;;;;;;;;;12.25;12.25;;;;;13.39;65.45;100221.59;5055045;28;8845;-63
2022/04/14 03:50:40;;;;;;;;;18.75;15.50;;;;;13.39;65.47;100226.94;5037836;28;8832;-63
2022/04/14 03:53:10;;;;;;;;;16.00;15.25;;;;;13.37;65.44;100223.56;5034473;28;8835;-63
2022/04/14 03:55:38;;;;;;;;;15.75;14.50;;;;;13.36;65.17;100225.38;5038388;28;8970;-63
2022/04/14 03:58:05;;;;;;;;;12.00;11.00;;;;;13.35;65.85;100229.03;5038589;28;8868;-62
2022/04/14 04:00:33;;;;;;;;;15.00;14.00;;;;;13.31;66.11;100219.59;5048392;28;8889;-63
2022/04/14 04:03:01;;;;;;;;;12.25;12.00;;;;;13.31;66.09;100216.91;5039221;28;8825;-63
2022/04/14 04:05:29;;;;;;;;;9.75;9.50;;;;;13.31;65.67;100218.72;5039328;28;8821;-63
2022/04/14 04:07:57;;;;;;;;;12.50;12.00;;;;;13.30;66.02;100219.72;5054859;28;8928;-63
2022/04/14 04:10:24;;;;;;;;;15.75;13.50;;;;;13.27;66.21;100222.63;5058053;28;8837;-63
2022/04/14 04:12:52;;;;;;;;;18.25;16.25;;;;;13.25;66.05;100224.59;5041663;28;8828;-63
2022/04/14 04:15:20;;;;;;;;;16.25;15.25;;;;;13.19;65.96;100227.78;5037880;28;8824;-62
2022/04/14 04:17:51;;;;;;;;;5.00;5.00;;;;;13.16;66.89;100225.41;5038080;28;8875;-62
2022/04/14 04:20:18;;;;;;;;;23.00;20.00;;;;;13.14;66.83;100228.19;5050995;28;8841;-63
2022/04/14 04:22:46;;;;;;;;;15.75;14.50;;;;;13.13;66.82;100239.03;5058139;28;8854;-62
2022/04/14 04:25:14;;;;;;;;;15.75;14.00;;;;;13.12;67.15;100234.66;5058328;28;8844;-63
2022/04/14 04:27:42;;;;;;;;;15.50;15.50;;;;;13.10;67.17;100236.59;5057254;28;8866;-62
2022/04/14 04:30:09;;;;;;;;;19.00;17.50;;;;;13.09;67.66;100229.56;5046125;28;9693;-62
2022/04/14 04:32:39;;;;;;;;;15.25;13.50;;;;;13.10;67.26;100225.91;5055102;28;9481;-63
2022/04/14 04:35:07;;;;;;;;;13.50;12.75;;;;;13.11;67.50;100212.41;5056830;28;8952;-63
2022/04/14 04:37:34;;;;;;;;;17.00;13.75;;;;;13.15;67.41;100215.69;5056847;28;8873;-62
2022/04/14 04:40:02;;;;;;;;;16.50;16.50;;;;;13.17;67.50;100214.56;5051237;28;8834;-62
2022/04/14 04:42:31;;;;;;;;;10.00;10.00;;;;;13.20;67.30;100214.31;5037735;28;8838;-63
2022/04/14 04:44:58;;;;;;;;;14.00;12.50;;;;;13.21;66.74;100224.00;5037437;28;8862;-63
2022/04/14 04:47:26;;;;;;;;;14.50;12.50;;;;;13.20;66.72;100245.56;5037682;28;8844;-62
2022/04/14 04:49:59;;;;;;;;;16.50;13.50;;;;;13.16;67.05;100250.31;5037966;28;8840;-63
2022/04/14 04:52:27;;;;;;;;;10.50;10.00;;;;;13.15;67.04;100247.78;5037417;28;8890;-63
2022/04/14 04:54:55;;;;;;;;;13.00;12.25;;;;;13.15;67.02;100245.09;5037829;28;8836;-62
2022/04/14 04:57:23;;;;;;;;;20.50;17.00;;;;;13.13;66.91;100249.75;5037918;28;8852;-63
2022/04/14 04:59:50;;;;;;;;;12.00;9.75;;;;;13.11;67.19;100259.69;5050576;28;8856;-62
2022/04/14 05:02:18;;;;;;;;;12.50;12.00;;;;;13.07;66.94;100251.09;5041261;28;9532;-63
2022/04/14 05:04:46;;;;;;;;;13.50;12.50;;;;;13.01;67.24;100248.94;5037488;28;8854;-62
2022/04/14 05:07:14;;;;;;;;;12.50;12.50;;;;;12.96;67.76;100258.31;5037321;28;8832;-62
2022/04/14 05:09:42;;;;;;;;;16.25;13.50;;;;;12.94;67.46;100262.91;5036580;28;8855;-62
2022/04/14 05:12:09;;;;;;;;;16.75;15.00;;;;;12.95;67.46;100272.66;5037313;28;9557;-62
2022/04/14 05:14:37;;;;;;;;;15.50;15.00;;;;;12.97;67.53;100273.38;5045273;28;8827;-63
2022/04/14 05:17:05;;;;;;;;;18.00;17.00;;;;;13.01;67.31;100269.47;5037316;28;8959;-62
2022/04/14 05:19:32;;;;;;;;;9.50;9.00;;;;;13.04;67.28;100271.88;5037289;28;8832;-63
2022/04/14 05:22:01;;;;;;;;;18.50;16.50;;;;;13.06;66.97;100278.81;5046053;28;8833;-63
2022/04/14 05:24:29;;;;;;;;;12.00;10.50;;;;;13.07;67.36;100275.16;5057111;28;8859;-63
2022/04/14 05:26:57;;;;;;;;;12.50;12.50;;;;;13.10;66.79;100274.03;5056717;28;8846;-63
2022/04/14 05:29:24;;;;;;;;;9.50;9.50;;;;;13.11;67.09;100279.28;5056851;28;9718;-62
2022/04/14 05:31:52;;;;;;;;;15.75;12.75;;;;;13.14;66.89;100284.34;5044801;28;8837;-63
2022/04/14 05:34:21;;;;;;;;;9.75;9.25;;;;;13.16;66.99;100294.91;5037077;28;8848;-62
2022/04/14 05:36:49;;;;;;;;;17.50;15.75;;;;;13.18;66.98;100292.97;5037105;28;8878;-62
2022/04/14 05:39:16;;;;;;;;;16.50;14.50;;;;;13.20;66.88;100297.22;5021003;28;8832;-62
2022/04/14 05:41:44;;;;;;;;;13.00;12.50;;;;;13.24;66.90;100303.16;5037271;28;8975;-62
2022/04/14 05:44:12;;;;;;;;;14.50;12.00;;;;;13.27;66.79;100300.19;5036478;28;8866;-63
2022/04/14 05:46:40;;;;;;;;;13.50;11.00;;;;;13.29;66.72;100303.63;5049966;28;8860;-62
2022/04/14 05:49:08;;;;;;;;;12.25;12.25;;;;;13.31;66.34;100312.34;5056250;28;8865;-63
2022/04/14 05:51:35;;;;;;;;;15.00;14.00;;;;;13.33;66.20;100307.69;5040932;28;8850;-62
2022/04/14 05:54:03;;;;;;;;;20.50;20.25;;;;;13.36;66.08;100304.78;5034920;28;9535;-62
2022/04/14 05:56:31;;;;;;;;;15.00;12.50;;;;;13.40;66.44;100315.09;5033917;28;8975;-63
2022/04/14 05:58:59;;;;;;;;;9.00;8.50;;;;;13.42;66.28;100321.16;5035439;28;9506;-63
2022/04/14 06:01:27;;;;;;;;;15.50;12.50;;;;;13.45;66.45;100320.88;5050451;28;8968;-62
2022/04/14 06:03:54;;;;;;;;;6.50;5.00;;;;;13.48;66.44;100304.59;5052268;28;8811;-63
2022/04/14 06:06:22;;;;;;;;;9.75;9.50;;;;;13.50;66.29;100305.28;5053700;28;8847;-63
2022/04/14 06:08:50;;;;;;;;;13.00;7.00;;;;;13.51;66.06;100306.16;5051830;28;8884;-63
2022/04/14 06:11:17;;;;;;;;;12.50;12.00;;;;;13.50;65.94;100299.94;5053545;28;8861;-64
2022/04/14 06:13:45;;;;;;;;;15.75;12.75;;;;;13.54;65.90;100308.56;5054250;28;8846;-63
2022/04/14 06:16:13;;;;;;;;;10.50;9.75;;;;;13.57;65.72;100308.28;5048790;28;8847;-62
2022/04/14 06:18:47;;;;;;;;;14.00;12.75;;;;;13.61;65.53;100312.41;5034787;28;8962;-63
2022/04/14 06:21:14;;;;;;;;;12.75;12.00;;;;;13.66;66.00;100312.88;5046698;28;8846;-62
2022/04/14 06:23:42;;;;;;;;;6.00;6.00;;;;;13.72;65.63;100317.66;5054860;28;8835;-62
2022/04/14 06:26:10;;;;;;;;;7.50;7.00;;;;;13.77;65.90;100320.78;5042079;28;8828;-64
2022/04/14 06:28:39;;;;;;;;;15.00;13.50;;;;;13.83;65.54;100317.59;5034714;28;8849;-63
2022/04/14 06:31:07;;;;;;;;;11.50;10.50;;;;;13.87;65.14;100317.19;5034781;28;8839;-66
2022/04/14 06:33:34;;;;;;;;;11.25;10.75;;;;;13.93;65.33;100330.06;5035161;28;8848;-63
2022/04/14 06:36:03;;;;;;;;;10.00;5.00;;;;;13.98;65.31;100329.66;5033540;28;8832;-62
2022/04/14 06:38:30;;;;;;;;;8.50;5.00;;;;;14.02;65.05;100325.69;5034165;28;8852;-64
2022/04/14 06:40:58;;;;;;;;;10.00;10.00;;;;;14.07;64.84;100328.84;5050029;28;8827;-63
2022/04/14 06:43:25;;;;;;;;;12.25;12.25;;;;;14.12;64.99;100318.56;5032685;28;8848;-62
2022/04/14 06:45:53;;;;;;;;;15.25;13.50;;;;;14.15;64.95;100321.84;5050784;28;8844;-64
2022/04/14 06:48:21;;;;;;;;;12.00;11.00;;;;;14.18;65.34;100312.72;5040465;28;9525;-62
2022/04/14 06:50:49;;;;;;;;;14.00;12.50;;;;;14.21;64.86;100318.63;5033438;28;8824;-63
2022/04/14 06:53:17;;;;;;;;;13.75;13.00;;;;;14.26;65.07;100310.19;5033941;28;8828;-63
2022/04/14 06:55:47;;;;;;;;;7.50;6.75;;;;;14.31;64.63;100314.16;5032610;28;8916;-62
2022/04/14 06:58:15;;;;;;;;;17.00;15.00;;;;;14.36;64.52;100327.16;5031961;28;8996;-62
2022/04/14 07:00:43;;;;;;;;;14.75;12.75;;;;;14.38;64.30;100320.66;5046361;28;8964;-63
2022/04/14 07:03:11;;;;;;;;;14.00;13.00;;;;;14.40;64.63;100323.19;5052749;28;8839;-63
2022/04/14 07:05:39;;;;;;;;;18.50;16.00;;;;;14.43;64.61;100328.28;5053256;28;8850;-63
2022/04/14 07:08:06;;;;;;;;;14.50;13.75;;;;;14.45;64.46;100327.19;5053278;28;9035;-65
2022/04/14 07:10:34;;;;;;;;;9.25;9.00;;;;;14.46;64.28;100334.22;5052698;28;9542;-63
2022/04/14 07:13:03;;;;;;;;;15.25;15.25;;;;;14.49;64.39;100333.13;5051863;28;8835;-64
2022/04/14 07:15:32;;;;;;;;;16.75;15.50;;;;;14.54;64.93;100342.44;5041243;28;8836;-63
2022/04/14 07:18:01;;;;;;;;;16.00;15.25;;;;;14.58;64.54;100334.97;5033599;28;8844;-63
2022/04/14 07:20:30;;;;;;;;;19.50;18.25;;;;;14.65;64.58;100344.16;5035174;28;8821;-62
2022/04/14 07:22:59;;;;;;;;;18.00;16.50;;;;;14.73;64.17;100341.63;5034470;28;8878;-62
2022/04/14 07:25:29;;;;;;;;;23.50;21.75;;;;;14.80;64.54;100340.09;5031703;28;9658;-63
2022/04/14 07:27:56;;;;;;;;;29.50;25.75;;;;;14.88;64.32;100346.44;5035315;28;8872;-64
2022/04/14 07:30:26;;;;;;;;;25.75;21.75;;;;;14.96;63.75;100333.16;5052491;28;8830;-62
2022/04/14 07:32:53;;;;;;;;;18.75;17.25;;;;;15.07;63.84;100334.88;5059133;28;9484;-63
2022/04/14 07:35:22;;;;;;;;;27.75;24.25;;;;;15.15;63.34;100337.69;5057262;28;8827;-62
2022/04/14 07:37:50;;;;;;;;;22.00;18.75;;;;;15.25;63.70;100335.88;5058892;28;8927;-63
2022/04/14 07:40:17;;;;;;;;;22.25;21.75;;;;;15.37;63.46;100334.75;5058277;28;8841;-63
2022/04/14 07:42:45;;;;;;;;;27.00;26.00;;;;;15.48;63.11;100335.44;5059194;28;8842;-64
2022/04/14 07:45:13;;;;;;;;;28.25;25.00;;;;;15.57;62.47;100331.94;5048797;28;8817;-63
2022/04/14 07:47:41;;;;;;;;;20.50;18.50;;;;;15.69;62.34;100337.97;5040446;28;8836;-63
2022/04/14 07:50:10;;;;;;;;;28.25;24.25;;;;;15.80;62.77;100332.44;5059139;28;8827;-62
2022/04/14 07:52:39;;;;;;;;;29.00;27.00;;;;;15.89;62.29;100337.78;5060306;28;8866;-63
2022/04/14 07:55:07;;;;;;;;;25.50;23.25;;;;;15.98;62.45;100339.59;5023148;28;8855;-63
2022/04/14 07:57:35;;;;;;;;;31.25;22.75;;;;;16.10;62.41;100337.56;5039275;28;9773;-63
2022/04/14 08:00:05;;;;;;;;;33.00;30.00;;;;;16.17;61.79;100334.97;5044741;28;8827;-62
2022/04/14 08:02:33;;;;;;;;;44.25;38.25;;;;;16.27;61.62;100340.31;5056031;28;8846;-62
2022/04/14 08:05:00;;;;;;;;;32.75;28.00;;;;;16.38;61.36;100335.63;5057935;28;8819;-63
2022/04/14 08:07:28;;;;;;;;;35.25;32.50;;;;;16.50;61.63;100337.09;5059207;28;8916;-63
2022/04/14 08:09:56;;;;;;;;;35.00;32.50;;;;;16.62;61.30;100330.53;5058862;28;8911;-63
2022/04/14 08:12:24;;;;;;;;;36.50;28.00;;;;;16.76;60.71;100329.16;5059727;28;8834;-64
2022/04/14 08:14:52;;;;;;;;;24.75;19.00;;;;;16.85;61.01;100325.59;5049735;28;8821;-62
2022/04/14 08:17:19;;;;;;;;;29.25;26.75;;;;;16.92;60.62;100332.88;5040256;28;8868;-63
2022/04/14 08:19:47;;;;;;;;;40.50;34.75;;;;;16.94;60.85;100335.44;5055545;28;8827;-62
2022/04/14 08:22:15;;;;;;;;;33.00;28.25;;;;;16.98;60.95;100332.28;5059384;28;8849;-62
2022/04/14 08:24:44;;;;;;;;;24.25;19.00;;;;;16.97;61.00;100338.66;5045465;28;8970;-63
2022/04/14 08:27:12;;;;;;;;;30.75;27.75;;;;;16.98;61.03;100332.28;5040552;28;8836;-62
2022/04/14 08:29:40;;;;;;;;;28.75;21.00;;;;;17.01;60.64;100340.03;5039919;28;8829;-62
2022/04/14 08:32:09;;;;;;;;;25.00;21.50;;;;;17.00;60.72;100337.53;5039647;28;8848;-62
2022/04/14 08:34:37;;;;;;;;;24.25;21.00;;;;;16.95;61.47;100337.94;5040134;28;8821;-62
2022/04/14 08:37:05;;;;;;;;;28.00;26.25;;;;;16.89;61.07;100338.59;5039457;28;8964;-62
2022/04/14 08:39:33;;;;;;;;;36.75;31.75;;;;;16.77;61.70;100345.16;5043773;28;8852;-63
2022/04/14 08:42:00;;;;;;;;;45.50;36.00;;;;;16.68;61.77;100351.47;5056487;28;8834;-63
2022/04/14 08:44:30;;;;;;;;;34.50;30.00;;;;;16.65;61.83;100348.22;5055384;28;8826;-63
2022/04/14 08:46:57;;;;;;;;;32.00;27.50;;;;;16.64;62.21;100351.91;5056861;28;8834;-62
2022/04/14 08:49:27;;;;;;;;;35.00;32.00;;;;;16.66;62.15;100356.16;5056105;28;8826;-62
2022/04/14 08:51:54;;;;;;;;;36.75;31.25;;;;;16.65;61.90;100340.97;5036798;28;8826;-62
2022/04/14 08:54:22;;;;;;;;;45.25;37.25;;;;;16.76;61.40;100338.09;5057235;28;8848;-62
2022/04/14 08:56:50;;;;;;;;;30.00;25.00;;;;;16.88;61.64;100341.41;5056713;28;9638;-63
2022/04/14 08:59:18;;;;;;;;;31.00;29.50;;;;;17.04;61.70;100349.66;5055148;28;9510;-63
2022/04/14 09:01:47;;;;;;;;;40.00;33.75;;;;;17.18;60.67;100347.28;5037399;28;8836;-62
2022/04/14 09:04:15;;;;;;;;;30.00;26.25;;;;;17.39;60.13;100334.38;5036632;28;8830;-62
2022/04/14 09:06:43;;;;;;;;;41.75;36.75;;;;;17.61;60.24;100333.03;5034249;28;8832;-62
2022/04/14 09:09:10;;;;;;;;;30.25;27.75;;;;;17.84;59.49;100340.44;5034323;28;8851;-62
2022/04/14 09:11:41;;;;;;;;;35.25;32.00;;;;;18.06;59.11;100331.81;5035141;28;8852;-63
2022/04/14 09:14:09;;;;;;;;;35.50;30.75;;;;;18.38;58.61;100331.16;5034827;28;8850;-64
2022/04/14 09:16:37;;;;;;;;;29.50;26.50;;;;;18.78;57.70;100334.88;5053959;28;8846;-62
2022/04/14 09:19:05;;;;;;;;;31.00;28.00;;;;;19.18;56.49;100336.81;5052757;28;8861;-63
2022/04/14 09:21:33;;;;;;;;;33.75;31.00;;;;;19.57;56.14;100338.69;5053157;28;8940;-63
2022/04/14 09:24:01;;;;;;;;;23.00;19.50;;;;;19.66;56.17;100334.13;5035878;28;9526;-62
2022/04/14 09:26:31;;;;;;;;;30.50;26.75;;;;;19.58;56.52;100334.16;5053569;28;8927;-63
2022/04/14 09:28:59;;;;;;;;;33.25;28.25;;;;;19.74;56.48;100335.00;5052731;28;8830;-63
2022/04/14 09:31:27;;;;;;;;;36.50;31.75;;;;;20.00;55.85;100329.34;5053188;28;8830;-63
2022/04/14 09:33:55;;;;;;;;;30.75;27.00;;;;;19.82;56.42;100331.41;5053244;28;8835;-62
2022/04/14 09:36:23;;;;;;;;;26.50;25.00;;;;;19.94;56.32;100332.75;5052991;28;8841;-63
2022/04/14 09:38:51;;;;;;;;;21.60;21.20;;;;;20.33;55.50;100315.56;5043593;28;8926;-62
2022/04/14 09:41:19;;;;;;;;;24.40;22.00;;;;;20.77;54.54;100325.72;5036974;28;8830;-62
2022/04/14 09:43:47;;;;;;;;;31.40;27.80;;;;;21.10;54.26;100313.69;5054868;28;8842;-63
2022/04/14 09:46:14;;;;;;;;;36.40;28.00;;;;;21.37;53.67;100317.72;5053034;28;8831;-63
2022/04/14 09:48:42;;;;;;;;;21.40;19.20;;;;;21.65;53.50;100313.41;5055583;28;8969;-63
2022/04/14 09:51:10;;;;;;;;;26.00;25.40;;;;;22.02;52.94;100310.69;5053426;28;8863;-62
2022/04/14 09:53:38;;;;;;;;;25.00;23.80;;;;;22.61;51.97;100304.25;5053459;28;8872;-62
2022/04/14 09:56:06;;;;;;;;;29.20;25.80;;;;;23.19;50.59;100307.66;5021967;28;8837;-64
2022/04/14 09:58:33;;;;;;;;;24.80;21.40;;;;;23.69;49.76;100303.94;5053938;28;8850;-64
2022/04/14 10:01:01;;;;;;;;;29.20;26.60;;;;;24.13;49.14;100294.44;5038331;28;8873;-63
2022/04/14 10:03:29;;;;;;;;;34.40;28.00;;;;;24.42;48.77;100298.81;5033377;28;8859;-63
2022/04/14 10:05:57;;;;;;;;;26.80;24.20;;;;;24.69;48.83;100293.28;5034283;28;8847;-64
2022/04/14 10:08:24;;;;;;;;;19.20;17.20;;;;;24.79;48.38;100296.47;5035091;28;8970;-63
2022/04/14 10:10:52;;;;;;;;;27.20;25.60;;;;;25.11;48.29;100297.63;5053162;28;8849;-64
2022/04/14 10:13:20;;;;;;;;;20.80;18.40;;;;;25.29;47.06;100292.44;5055989;28;9520;-64
2022/04/14 10:15:49;;;;;;;;;20.40;18.00;;;;;25.03;48.15;100289.63;5039209;28;8966;-63
2022/04/14 10:18:17;;;;;;;;;24.00;21.80;;;;;24.84;48.36;100293.13;5035360;28;8828;-63
2022/04/14 10:20:45;;;;;;;;;23.60;21.00;;;;;25.31;47.49;100290.31;5034423;28;8847;-64
2022/04/14 10:23:12;;;;;;;;;28.80;26.40;;;;;25.88;46.78;100289.53;5034120;28;9599;-63
2022/04/14 10:25:40;;;;;;;;;26.20;23.00;;;;;26.42;45.57;100281.03;5033613;28;8967;-64
2022/04/14 10:28:08;;;;;;;;;21.00;18.60;;;;;26.92;44.79;100271.97;5048134;28;8855;-63
2022/04/14 10:30:35;;;;;;;;;20.80;19.40;;;;;26.63;44.86;100284.31;5036533;28;8864;-63
2022/04/14 10:33:03;;;;;;;;;18.40;17.20;;;;;25.52;47.21;100281.94;5050851;28;8823;-63
2022/04/14 10:35:32;;;;;;;;;20.40;18.00;;;;;24.48;49.21;100284.34;5046665;28;8845;-63
2022/04/14 10:38:00;;;;;;;;;18.40;17.20;;;;;23.68;50.50;100291.38;5034139;28;8929;-63
2022/04/14 10:40:28;;;;;;;;;22.80;21.40;;;;;22.87;52.00;100285.53;5033562;28;9787;-63
2022/04/14 10:42:55;;;;;;;;;23.20;20.00;;;;;22.20;53.37;100290.31;5039094;28;8838;-63
2022/04/14 10:45:23;;;;;;;;;20.00;18.20;;;;;22.00;53.66;100283.75;5042922;28;8816;-63
2022/04/14 10:47:51;;;;;;;;;23.60;21.20;;;;;22.04;53.32;100284.22;5033683;28;9557;-63
2022/04/14 10:50:18;;;;;;;;;25.60;25.40;;;;;22.62;52.59;100290.44;5033642;28;8837;-66
2022/04/14 10:52:48;;;;;;;;;24.80;23.80;;;;;24.03;49.15;100282.22;5033993;28;9498;-63
2022/04/14 10:55:16;;;;;;;;;23.20;19.80;;;;;25.38;46.60;100267.47;5033886;28;8833;-65
2022/04/14 10:57:44;;;;;;;;;29.80;28.20;;;;;26.59;45.08;100272.16;5032415;28;8867;-63
2022/04/14 11:00:12;;;;;;;;;28.40;26.00;;;;;26.36;44.66;100274.53;5041076;28;8858;-64
2022/04/14 11:02:40;;;;;;;;;22.80;21.40;;;;;26.22;45.03;100275.63;5048740;28;8830;-63
2022/04/14 11:05:07;;;;;;;;;25.00;23.00;;;;;26.87;43.78;100275.38;5053902;28;8848;-63
2022/04/14 11:07:35;;;;;;;;;23.60;22.20;;;;;27.35;43.12;100275.72;5053471;28;8904;-63
2022/04/14 11:10:03;;;;;;;;;16.00;15.00;;;;;26.90;43.36;100269.47;5053816;28;8830;-64
2022/04/14 11:12:33;;;;;;;;;19.80;19.60;;;;;26.21;44.56;100268.47;5054282;28;8862;-63
2022/04/14 11:15:00;;;;;;;;;21.60;18.60;;;;;25.95;45.24;100262.25;5050694;28;9516;-63
2022/04/14 11:17:28;;;;;;;;;23.20;21.60;;;;;25.33;46.17;100259.06;5054785;28;8976;-63
2022/04/14 11:19:56;;;;;;;;;24.00;23.00;;;;;24.88;46.36;100262.53;5054194;28;8831;-63
2022/04/14 11:22:24;;;;;;;;;23.20;22.40;;;;;24.77;46.88;100260.41;5053627;28;8869;-63